Time;durP1;ratioP1;P1;durP2;ratioP2;P2;SDS_P1;SDS_P2;PMS_P1;PMS_P2;Temp;Humidity;BMP_temperature;BMP_pressure;BME280_temperature;BME280_humidity;BME280_pressure;Samples;Min_cycle;Max_cycle;Signal;HPM_P1;HPM_P2
2022/03/18 00:01:23;;;;;;;6.23;5.77;;;;;;;3.14;75.98;101505.19;5092140;28;21013;-68
2022/03/18 00:03:51;;;;;;;5.77;5.33;;;;;;;3.24;76.09;101508.91;5091896;28;20822;-68
2022/03/18 00:06:18;;;;;;;5.20;4.87;;;;;;;3.14;75.53;101499.94;5092995;28;20494;-69
2022/03/18 00:08:46;;;;;;;6.63;5.67;;;;;;;3.20;75.20;101503.94;5092372;28;20445;-69
2022/03/18 00:11:14;;;;;;;6.13;5.67;;;;;;;3.14;76.22;101510.44;5092284;28;20877;-68
2022/03/18 00:13:42;;;;;;;9.20;5.40;;;;;;;3.20;75.68;101512.69;5092015;28;20960;-69
2022/03/18 00:16:08;;;;;;;6.90;5.27;;;;;;;3.30;75.50;101524.25;5092307;28;20459;-68
2022/03/18 00:18:35;;;;;;;6.17;5.30;;;;;;;3.04;76.24;101517.22;5091934;28;20433;-68
2022/03/18 00:21:02;;;;;;;9.80;6.13;;;;;;;3.08;76.36;101521.34;5091939;28;20445;-68
2022/03/18 00:23:29;;;;;;;14.13;5.80;;;;;;;3.09;75.78;101512.53;5092350;28;20444;-68
2022/03/18 00:25:56;;;;;;;6.13;5.70;;;;;;;3.17;76.05;101517.25;5091913;28;20449;-68
2022/03/18 00:28:22;;;;;;;6.50;5.93;;;;;;;3.24;76.42;101514.16;5092128;28;20859;-68
2022/03/18 00:30:51;;;;;;;6.93;6.33;;;;;;;3.26;75.08;101514.88;5092372;28;20472;-68
2022/03/18 00:33:18;;;;;;;6.17;5.77;;;;;;;3.27;74.74;101511.31;5092425;28;20463;-68
2022/03/18 00:35:44;;;;;;;6.50;6.00;;;;;;;3.27;74.83;101500.81;5092147;28;20449;-68
2022/03/18 00:38:11;;;;;;;6.23;5.67;;;;;;;3.25;75.14;101502.72;5092944;28;20437;-68
2022/03/18 00:40:38;;;;;;;6.40;5.90;;;;;;;3.04;74.74;101501.47;5092307;28;20433;-68
2022/03/18 00:43:05;;;;;;;6.20;5.63;;;;;;;3.00;74.89;101505.25;5091766;28;21036;-69
2022/03/18 00:45:31;;;;;;;6.30;5.70;;;;;;;2.95;75.22;101504.72;5092607;28;20494;-68
2022/03/18 00:53:28;;;;;;;5.07;4.73;;;;;;;2.90;76.26;101506.75;5092325;28;20409;-69
2022/03/18 00:55:55;;;;;;;7.57;5.80;;;;;;;2.84;76.06;101512.41;5091570;28;20967;-69
2022/03/18 00:58:22;;;;;;;10.00;5.60;;;;;;;2.96;76.37;101516.88;5092204;28;20445;-68
2022/03/18 01:00:48;;;;;;;6.63;6.07;;;;;;;3.05;75.88;101526.78;5092684;28;20514;-69
2022/03/18 01:03:17;;;;;;;5.60;5.30;;;;;;;2.89;75.49;101520.84;5091840;28;20552;-68
2022/03/18 01:05:43;;;;;;;8.20;5.27;;;;;;;2.78;75.91;101518.03;5091860;28;20503;-68
2022/03/18 01:08:10;;;;;;;5.63;5.17;;;;;;;2.85;75.74;101529.84;5091818;28;20486;-68
2022/03/18 01:10:37;;;;;;;7.33;5.60;;;;;;;2.90;75.70;101535.63;5091335;28;20857;-68
2022/03/18 01:13:04;;;;;;;6.10;5.60;;;;;;;2.83;76.11;101536.97;5091471;28;20440;-68
2022/03/18 01:15:31;;;;;;;6.53;5.30;;;;;;;2.73;76.02;101533.25;5093546;28;20486;-68
2022/03/18 01:17:57;;;;;;;5.87;5.37;;;;;;;2.80;76.15;101542.41;5095076;28;21002;-69
2022/03/18 01:20:25;;;;;;;6.53;5.77;;;;;;;2.91;76.14;101544.34;5095337;28;20441;-69
2022/03/18 01:22:52;;;;;;;5.90;5.50;;;;;;;2.77;76.24;101539.97;5095280;28;20447;-69
2022/03/18 01:25:19;;;;;;;5.67;5.20;;;;;;;2.91;76.98;101532.09;5094938;28;20248;-68
2022/03/18 01:27:46;;;;;;;6.50;5.97;;;;;;;3.01;76.51;101546.28;5095726;28;20498;-69
2022/03/18 01:30:14;;;;;;;5.83;5.33;;;;;;;3.01;75.89;101550.69;5095191;28;20430;-69
2022/03/18 01:32:41;;;;;;;5.83;4.97;;;;;;;3.04;76.39;101547.88;5094736;28;20567;-68
2022/03/18 01:35:09;;;;;;;5.97;5.57;;;;;;;3.07;76.45;101559.03;5095362;28;20437;-69
2022/03/18 01:37:37;;;;;;;5.73;5.30;;;;;;;3.14;76.40;101549.00;5094981;28;20514;-69
2022/03/18 01:40:04;;;;;;;6.33;5.80;;;;;;;3.21;76.01;101552.88;5094977;28;20437;-69
2022/03/18 01:42:31;;;;;;;7.30;5.70;;;;;;;3.16;76.38;101552.34;5095030;28;20437;-69
2022/03/18 01:44:58;;;;;;;7.17;6.57;;;;;;;3.19;75.32;101555.59;5094507;28;21073;-69
2022/03/18 01:47:25;;;;;;;6.87;6.27;;;;;;;3.14;75.22;101549.00;5094855;28;20442;-69
2022/03/18 01:49:53;;;;;;;8.57;6.07;;;;;;;2.99;76.31;101550.78;5094771;28;20439;-69
2022/03/18 01:52:20;;;;;;;7.13;6.40;;;;;;;3.00;76.09;101565.63;5094899;28;20473;-69
2022/03/18 01:54:51;;;;;;;7.57;6.80;;;;;;;3.12;76.42;101562.22;5094663;28;20433;-69
2022/03/18 01:57:19;;;;;;;10.33;7.27;;;;;;;3.14;76.00;101564.75;5094405;28;20421;-69
2022/03/18 01:59:46;;;;;;;8.63;6.87;;;;;;;3.14;75.27;101573.44;5094282;28;20972;-68
2022/03/18 02:02:14;;;;;;;10.43;6.93;;;;;;;2.98;75.82;101577.97;5094229;28;20437;-69
2022/03/18 02:04:41;;;;;;;8.97;6.70;;;;;;;3.07;76.04;101577.41;5094382;28;20484;-69
2022/03/18 02:07:10;;;;;;;7.43;6.83;;;;;;;3.17;75.67;101591.63;5094504;28;20456;-68
2022/03/18 02:09:38;;;;;;;7.27;6.70;;;;;;;3.20;75.03;101583.56;5094363;28;20483;-68
2022/03/18 02:12:09;;;;;;;6.50;5.80;;;;;;;3.23;74.99;101583.34;5094039;28;20472;-68
2022/03/18 02:14:38;;;;;;;8.63;6.03;;;;;;;3.27;74.33;101582.22;5094082;28;20422;-68
2022/03/18 02:17:06;;;;;;;7.20;5.93;;;;;;;3.36;74.87;101589.53;5094278;28;20502;-69
2022/03/18 02:19:33;;;;;;;6.10;5.40;;;;;;;3.37;74.25;101585.94;5093928;28;20471;-69
2022/03/18 02:22:00;;;;;;;6.53;5.63;;;;;;;3.24;74.03;101574.56;5094662;28;20785;-68
2022/03/18 02:24:28;;;;;;;8.73;6.20;;;;;;;3.19;74.99;101581.03;5094149;28;20490;-68
2022/03/18 02:26:55;;;;;;;6.20;5.60;;;;;;;3.28;74.69;101581.31;5094032;28;20429;-69
2022/03/18 02:29:24;;;;;;;6.40;5.77;;;;;;;3.33;73.32;101591.50;5094036;28;20433;-69
2022/03/18 02:31:51;;;;;;;6.23;5.73;;;;;;;3.33;73.91;101591.50;5093585;28;20486;-69
2022/03/18 02:34:18;;;;;;;6.27;5.50;;;;;;;3.30;73.25;101589.06;5094515;28;20503;-68
2022/03/18 02:36:45;;;;;;;6.33;5.83;;;;;;;3.28;74.18;101590.94;5093596;28;21018;-68
2022/03/18 02:39:11;;;;;;;5.77;5.47;;;;;;;3.18;73.82;101593.31;5093521;28;20475;-68
2022/03/18 02:41:39;;;;;;;6.73;5.33;;;;;;;3.22;73.55;101592.19;5093762;28;20441;-68
2022/03/18 02:44:06;;;;;;;6.37;5.60;;;;;;;3.25;74.73;101601.63;5093392;28;21021;-68
2022/03/18 02:46:33;;;;;;;6.40;5.20;;;;;;;3.28;74.07;101602.31;5093393;28;20434;-68
2022/03/18 02:49:01;;;;;;;5.67;5.27;;;;;;;3.33;74.30;101602.84;5094471;28;20516;-69
2022/03/18 02:51:28;;;;;;;6.23;5.73;;;;;;;3.24;73.33;101600.81;5093489;28;20572;-69
2022/03/18 02:53:56;;;;;;;6.30;5.70;;;;;;;3.27;74.41;101600.59;5093695;28;20445;-69
2022/03/18 02:56:23;;;;;;;5.97;5.60;;;;;;;3.20;74.37;101601.97;5093457;28;20441;-68
2022/03/18 02:58:51;;;;;;;5.93;5.53;;;;;;;3.30;74.36;101604.81;5094014;28;20438;-69
2022/03/18 03:01:18;;;;;;;5.57;5.27;;;;;;;3.25;74.37;101607.75;5093067;28;20433;-69
2022/03/18 03:03:45;;;;;;;5.67;5.17;;;;;;;3.30;74.78;101615.31;5093361;28;20437;-69
2022/03/18 03:08:56;;;;;;;6.60;6.00;;;;;;;3.30;74.32;101610.06;5093151;28;20407;-68
2022/03/18 03:11:23;;;;;;;7.57;5.33;;;;;;;3.38;74.92;101618.28;5092845;28;20861;-68
2022/03/18 03:13:52;;;;;;;5.83;5.43;;;;;;;3.44;74.14;101621.38;5092899;28;21004;-69
2022/03/18 03:16:19;;;;;;;6.87;6.07;;;;;;;3.47;74.11;101612.47;5093961;28;20262;-70
2022/03/18 03:18:46;;;;;;;5.57;5.23;;;;;;;3.50;73.89;101623.63;5092797;28;20193;-69
2022/03/18 03:21:13;;;;;;;5.77;5.30;;;;;;;3.55;73.54;101636.47;5093053;28;20467;-68
2022/03/18 03:23:40;;;;;;;7.37;5.20;;;;;;;3.54;72.92;101619.84;5093014;28;20505;-68
2022/03/18 03:26:07;;;;;;;5.60;5.10;;;;;;;3.61;72.92;101631.66;5092677;28;20441;-68
2022/03/18 03:28:33;;;;;;;5.80;5.37;;;;;;;3.60;73.08;101640.44;5092922;28;20487;-67
2022/03/18 03:31:01;;;;;;;6.30;5.70;;;;;;;3.59;73.38;101637.94;5092907;28;20194;-68
2022/03/18 03:33:28;;;;;;;6.93;6.00;;;;;;;3.63;72.69;101629.75;5092478;28;20534;-68
2022/03/18 03:35:55;;;;;;;6.17;5.57;;;;;;;3.65;73.06;101646.28;5092465;28;20499;-67
2022/03/18 03:38:23;;;;;;;6.20;5.00;;;;;;;3.68;72.60;101650.50;5092109;28;20429;-68
2022/03/18 03:40:50;;;;;;;6.33;5.73;;;;;;;3.72;72.22;101644.09;5092446;28;20819;-67
2022/03/18 03:43:17;;;;;;;5.40;5.00;;;;;;;3.69;72.70;101650.41;5092699;28;20445;-68
2022/03/18 03:45:44;;;;;;;8.07;6.53;;;;;;;3.70;72.78;101643.34;5092355;28;20551;-68
2022/03/18 03:48:12;;;;;;;8.77;7.00;;;;;;;3.75;72.17;101655.22;5092334;28;20195;-68
2022/03/18 03:50:40;;;;;;;7.23;6.53;;;;;;;3.41;73.32;101644.38;5092300;28;20655;-69
2022/03/18 03:53:07;;;;;;;6.10;5.60;;;;;;;3.42;73.67;101646.91;5092208;28;21055;-69
2022/03/18 03:55:38;;;;;;;6.40;5.90;;;;;;;3.53;73.07;101657.56;5092250;28;20445;-67
2022/03/18 03:58:06;;;;;;;7.23;6.13;;;;;;;3.58;72.71;101660.75;5093406;28;20859;-68
2022/03/18 04:00:32;;;;;;;7.57;6.77;;;;;;;3.65;73.40;101664.66;5092180;28;20549;-68
2022/03/18 04:02:59;;;;;;;8.03;7.23;;;;;;;3.68;72.22;101667.06;5092429;28;20467;-67
2022/03/18 04:05:27;;;;;;;7.60;6.80;;;;;;;3.68;71.98;101674.13;5092714;28;20226;-70
2022/03/18 04:07:54;;;;;;;9.07;8.20;;;;;;;3.68;73.05;101669.72;5092036;28;20678;-68
2022/03/18 04:10:20;;;;;;;8.10;7.27;;;;;;;3.70;72.33;101673.09;5092633;28;20491;-68
2022/03/18 04:12:47;;;;;;;8.47;7.03;;;;;;;3.72;72.67;101676.44;5092233;28;20541;-68
2022/03/18 04:15:14;;;;;;;10.23;9.20;;;;;;;3.69;72.11;101675.81;5092025;28;20503;-68
2022/03/18 04:17:43;;;;;;;11.73;8.67;;;;;;;3.73;72.47;101680.78;5092183;28;20595;-68
2022/03/18 04:20:12;;;;;;;8.33;7.80;;;;;;;3.72;72.88;101673.00;5092232;28;20806;-67
2022/03/18 04:22:42;;;;;;;8.13;7.47;;;;;;;3.69;73.20;101671.41;5091912;28;20194;-68
2022/03/18 04:25:09;;;;;;;8.20;7.60;;;;;;;3.68;73.43;101674.97;5092118;28;20620;-68
2022/03/18 04:27:37;;;;;;;9.80;8.77;;;;;;;3.70;72.97;101678.34;5092411;28;20557;-68
2022/03/18 04:30:04;;;;;;;9.33;8.60;;;;;;;3.72;72.50;101681.72;5091848;28;20650;-68
2022/03/18 04:32:31;;;;;;;10.13;9.13;;;;;;;3.71;73.41;101687.91;5091748;28;20272;-68
2022/03/18 04:34:58;;;;;;;11.10;9.13;;;;;;;3.73;73.95;101691.31;5092353;28;20611;-68
2022/03/18 04:37:25;;;;;;;8.20;7.50;;;;;;;3.72;72.91;101694.84;5092587;28;20502;-68
2022/03/18 04:39:53;;;;;;;9.80;8.87;;;;;;;3.75;73.34;101696.44;5092328;28;20205;-68
2022/03/18 04:42:20;;;;;;;16.03;9.83;;;;;;;3.76;72.97;101688.44;5091733;28;20441;-68
2022/03/18 04:44:47;;;;;;;9.80;8.90;;;;;;;3.81;73.29;101699.53;5091913;28;20445;-68
2022/03/18 04:47:13;;;;;;;9.63;8.43;;;;;;;3.82;74.37;101692.47;5091569;28;20603;-68
2022/03/18 04:49:41;;;;;;;16.13;9.30;;;;;;;3.90;74.32;101695.44;5092223;28;20547;-67
2022/03/18 04:52:08;;;;;;;9.70;8.87;;;;;;;4.01;73.23;101706.94;5095448;28;20218;-68
2022/03/18 04:54:34;;;;;;;9.87;8.97;;;;;;;4.13;73.32;101705.31;5096197;28;20602;-68
2022/03/18 04:57:19;;;;;;;10.13;9.07;;;;;;;4.24;73.34;101714.16;5095756;28;20199;-68
2022/03/18 04:59:47;;;;;;;9.07;8.17;;;;;;;4.52;73.38;101711.38;5096232;28;20865;-68
2022/03/18 05:02:15;;;;;;;11.03;8.60;;;;;;;4.92;72.85;101714.78;5095513;28;20199;-69
2022/03/18 05:04:42;;;;;;;9.83;7.37;;;;;;;5.37;70.73;101727.34;5095526;28;20318;-68
2022/03/18 05:07:11;;;;;;;8.83;7.70;;;;;;;5.85;69.38;101726.53;5095266;28;20214;-69
2022/03/18 05:09:39;;;;;;;9.80;8.93;;;;;;;6.15;67.28;101736.59;5095475;28;20282;-68
2022/03/18 05:12:09;;;;;;;8.57;7.77;;;;;;;6.15;67.75;101741.88;5095102;28;20259;-68
2022/03/18 05:14:36;;;;;;;9.30;8.50;;;;;;;6.31;67.52;101735.38;5095471;28;20196;-67
2022/03/18 05:17:03;;;;;;;12.50;8.13;;;;;;;6.69;65.68;101748.34;5095274;28;20244;-67
2022/03/18 05:19:30;;;;;;;14.83;9.87;;;;;;;6.74;63.93;101751.47;5095795;28;20188;-67
2022/03/18 05:21:57;;;;;;;11.67;10.13;;;;;;;6.74;63.72;101751.47;5095243;28;20234;-67
2022/03/18 05:24:25;;;;;;;13.97;11.80;;;;;;;6.42;65.52;101721.38;5095209;28;20189;-67
2022/03/18 05:26:52;;;;;;;9.20;8.13;;;;;;;6.85;64.79;101754.13;5094890;28;20217;-68
2022/03/18 05:29:20;;;;;;;10.30;8.00;;;;;;;7.21;63.01;101756.56;5094493;28;20277;-67
2022/03/18 05:31:47;;;;;;;9.37;7.90;;;;;;;7.41;62.48;101763.78;5094702;28;20197;-69
2022/03/18 05:34:14;;;;;;;13.23;8.97;;;;;;;7.72;61.74;101757.75;5094833;28;20281;-68
2022/03/18 05:36:41;;;;;;;12.87;10.93;;;;;;;8.10;59.71;101779.31;5094717;28;20202;-69
2022/03/18 05:39:08;;;;;;;15.80;12.40;;;;;;;8.00;58.07;101781.06;5094872;28;20191;-68
2022/03/18 05:41:38;;;;;;;13.27;11.67;;;;;;;8.01;57.93;101790.66;5094478;28;20659;-68
2022/03/18 05:44:05;;;;;;;12.03;10.83;;;;;;;7.96;57.26;101787.56;5094888;28;20205;-68
2022/03/18 05:46:33;;;;;;;15.77;9.63;;;;;;;7.78;57.90;101789.00;5094818;28;20298;-68
2022/03/18 05:49:00;;;;;;;12.30;9.13;;;;;;;7.55;57.33;101792.66;5094790;28;20272;-68
2022/03/18 05:51:27;;;;;;;11.37;8.63;;;;;;;7.28;58.94;101786.84;5094303;28;20199;-70
2022/03/18 05:53:54;;;;;;;10.03;9.10;;;;;;;7.37;59.04;101794.06;5094736;28;20222;-69
2022/03/18 05:59:06;;;;;;;12.87;9.73;;;;;;;7.56;60.11;101807.53;5094249;28;20568;-68
2022/03/18 06:01:37;;;;;;;13.40;9.03;;;;;;;8.02;58.90;101803.78;5093700;28;20294;-68
2022/03/18 06:04:04;;;;;;;17.17;10.50;;;;;;;8.30;56.97;101813.00;5094297;28;20184;-68
2022/03/18 06:06:31;;;;;;;16.57;11.30;;;;;;;8.38;56.40;101816.69;5094469;28;20280;-68
2022/03/18 06:11:51;;;;;;;13.53;9.13;;;;;;;8.03;58.04;101821.34;5082115;28;20206;-69
2022/03/18 06:14:19;;;;;;;11.33;10.17;;;;;;;8.03;57.97;101817.84;5076098;28;20750;-69
2022/03/18 06:16:49;;;;;;;12.37;11.00;;;;;;;7.80;58.10;101813.56;5073554;28;20656;-69
2022/03/18 06:19:17;;;;;;;12.80;8.27;;;;;;;7.90;69.26;101793.31;5073871;28;20249;-68
2022/03/18 06:21:44;;;;;;;8.03;7.30;;;;;;;9.38;70.45;101794.00;5084083;28;20195;-67
2022/03/18 06:24:11;;;;;;;11.57;8.10;;;;;;;10.70;55.85;101839.63;5094346;28;20195;-67
2022/03/18 06:26:38;;;;;;;11.00;7.87;;;;;;;10.78;50.35;101821.16;5080354;28;20253;-70
2022/03/18 06:29:05;;;;;;;8.87;8.00;;;;;;;10.35;45.10;101839.31;5073311;28;20196;-70
2022/03/18 06:31:32;;;;;;;9.83;7.50;;;;;;;10.82;43.82;101846.47;5086183;28;20199;-71
2022/03/18 06:34:00;;;;;;;14.87;9.20;;;;;;;11.10;43.72;101837.66;5082269;28;20215;-70
2022/03/18 06:36:27;;;;;;;10.37;7.60;;;;;;;11.71;47.28;101838.91;5079808;28;20711;-69
2022/03/18 06:38:54;;;;;;;10.93;8.17;;;;;;;12.00;41.72;101820.97;5073043;28;20195;-67
2022/03/18 06:41:20;;;;;;;9.47;7.90;;;;;;;12.47;40.12;101830.50;5076660;28;20635;-67
2022/03/18 06:43:47;;;;;;;9.53;8.63;;;;;;;12.64;38.54;101829.66;5078717;28;20209;-67
2022/03/18 06:46:15;;;;;;;10.30;8.60;;;;;;;12.84;38.02;101825.84;5072975;28;20685;-68
2022/03/18 06:48:42;;;;;;;11.70;8.63;;;;;;;12.64;37.47;101832.34;5075091;28;20684;-67
2022/03/18 06:51:11;;;;;;;8.93;8.03;;;;;;;12.46;37.79;101836.81;5093034;28;20712;-68
2022/03/18 06:53:38;;;;;;;9.27;7.70;;;;;;;12.59;36.79;101842.63;5093223;28;20222;-67
2022/03/18 06:56:05;;;;;;;8.10;6.40;;;;;;;13.16;38.97;101831.50;5093124;28;20665;-68
2022/03/18 06:58:32;;;;;;;8.90;7.33;;;;;;;12.78;33.84;101842.47;5093314;28;20281;-68
2022/03/18 07:00:59;;;;;;;7.10;6.40;;;;;;;13.03;31.81;101836.38;5093720;28;20255;-69
2022/03/18 07:03:26;;;;;;;6.50;5.93;;;;;;;13.20;29.97;101846.19;5092722;28;20198;-69
2022/03/18 07:05:54;;;;;;;6.10;5.63;;;;;;;13.56;29.49;101845.09;5079765;28;20235;-69
2022/03/18 07:08:22;;;;;;;8.57;7.40;;;;;;;13.46;29.68;101854.19;5092939;28;20203;-68
2022/03/18 07:10:49;;;;;;;8.33;6.87;;;;;;;13.10;31.06;101837.44;5093738;28;20244;-69
2022/03/18 07:13:16;;;;;;;6.93;6.33;;;;;;;12.19;31.91;101823.53;5083109;28;20273;-68
2022/03/18 07:15:43;;;;;;;7.20;5.93;;;;;;;12.00;33.36;101839.63;5072413;28;20202;-69
2022/03/18 07:18:09;;;;;;;6.17;5.67;;;;;;;12.24;31.29;101842.56;5071755;28;20665;-69
2022/03/18 07:20:37;;;;;;;13.47;6.73;;;;;;;12.39;30.35;101846.41;5073265;28;20197;-68
2022/03/18 07:23:07;;;;;;;7.00;6.30;;;;;;;12.30;30.77;101836.66;5083521;28;20199;-67
2022/03/18 07:25:37;;;;;;;11.43;7.67;;;;;;;12.05;32.11;101837.34;5093613;28;20189;-69
2022/03/18 07:28:04;;;;;;;8.83;6.40;;;;;;;11.92;31.64;101831.53;5082859;28;20260;-70
2022/03/18 07:30:31;;;;;;;6.50;5.90;;;;;;;12.07;30.02;101851.38;5071815;28;20202;-69
2022/03/18 07:32:58;;;;;;;13.73;9.70;;;;;;;11.96;30.90;101832.91;5077113;28;20650;-70
2022/03/18 07:35:25;;;;;;;8.00;7.20;;;;;;;12.09;30.73;101849.38;5092477;28;20206;-70
2022/03/18 07:37:52;;;;;;;6.03;5.43;;;;;;;12.33;30.40;101841.66;5092305;28;20189;-69
2022/03/18 07:40:19;;;;;;;7.40;6.47;;;;;;;12.83;29.56;101848.16;5086746;28;20194;-70
2022/03/18 07:42:49;;;;;;;7.97;5.90;;;;;;;13.26;29.44;101848.22;5071818;28;20382;-70
2022/03/18 07:45:19;;;;;;;10.77;6.17;;;;;;;13.52;28.06;101854.41;5072242;28;20195;-70
2022/03/18 07:47:49;;;;;;;6.37;5.10;;;;;;;13.04;29.35;101843.41;5073015;28;20253;-70
2022/03/18 07:50:19;;;;;;;7.97;7.10;;;;;;;13.24;28.56;101863.53;5072242;28;20224;-69
2022/03/18 07:52:47;;;;;;;7.00;6.40;;;;;;;13.52;27.81;101870.44;5072204;28;20196;-68
2022/03/18 07:55:14;;;;;;;7.13;5.57;;;;;;;13.83;27.84;101860.94;5072204;28;20192;-69
2022/03/18 07:57:40;;;;;;;11.30;6.10;;;;;;;13.73;27.86;101862.06;5072515;28;20203;-70
2022/03/18 08:00:11;;;;;;;6.97;6.37;;;;;;;13.89;26.86;101860.28;5071212;28;20277;-71
2022/03/18 08:02:38;;;;;;;7.50;6.23;;;;;;;14.11;26.75;101859.72;5071443;28;20188;-73
2022/03/18 08:05:05;;;;;;;6.87;6.17;;;;;;;14.26;26.62;101855.47;5071214;28;20654;-70
2022/03/18 08:07:33;;;;;;;40.47;12.17;;;;;;;14.14;26.62;101856.72;5072831;28;20192;-70
2022/03/18 08:09:59;;;;;;;13.60;8.27;;;;;;;13.84;26.58;101851.91;5071941;28;20203;-69
2022/03/18 08:12:28;;;;;;;7.27;5.93;;;;;;;13.60;26.55;101851.78;5072078;28;20195;-69
2022/03/18 08:14:54;;;;;;;7.33;6.20;;;;;;;13.44;26.93;101854.34;5071508;28;20306;-69
2022/03/18 08:17:23;;;;;;;6.60;6.00;;;;;;;13.60;25.87;101846.44;5071537;28;20613;-70
2022/03/18 08:19:50;;;;;;;16.37;9.27;;;;;;;13.51;25.69;101847.41;5071599;28;20195;-70
2022/03/18 08:22:16;;;;;;;6.80;6.20;;;;;;;13.53;25.78;101850.75;5071661;28;20618;-69
2022/03/18 08:24:43;;;;;;;5.10;4.80;;;;;;;13.33;26.10;101843.94;5074183;28;20249;-69
2022/03/18 08:27:10;;;;;;;7.03;5.87;;;;;;;12.91;26.83;101844.75;5075959;28;20249;-69
2022/03/18 08:29:38;;;;;;;7.80;5.83;;;;;;;13.31;26.68;101840.59;5092161;28;20190;-69
2022/03/18 08:32:05;;;;;;;6.77;6.17;;;;;;;12.97;26.48;101829.00;5095716;28;20666;-69
2022/03/18 08:34:33;;;;;;;7.33;6.20;;;;;;;12.79;26.74;101829.97;5112612;28;20778;-69
2022/03/18 08:37:01;;;;;;;6.23;5.63;;;;;;;13.17;26.22;101838.50;5098149;28;20629;-69
2022/03/18 08:39:27;;;;;;;6.20;5.60;;;;;;;13.55;26.21;101826.53;5095939;28;20278;-69
2022/03/18 08:41:54;;;;;;;6.30;5.90;;;;;;;13.13;26.08;101837.13;5095032;28;20191;-68
2022/03/18 08:44:21;;;;;;;6.80;6.20;;;;;;;13.22;26.03;101830.00;5095526;28;20203;-69
2022/03/18 08:46:47;;;;;;;6.30;5.70;;;;;;;13.38;26.05;101835.44;5096034;28;20644;-68
2022/03/18 08:49:14;;;;;;;6.63;6.07;;;;;;;13.67;26.08;101831.47;5095454;28;20631;-69
2022/03/18 08:51:42;;;;;;;6.23;4.80;;;;;;;13.89;29.64;101822.88;5095503;28;20192;-70
2022/03/18 08:54:09;;;;;;;10.40;6.07;;;;;;;13.54;28.36;101825.72;5095353;28;20709;-69
2022/03/18 08:56:37;;;;;;;6.67;5.93;;;;;;;13.01;28.01;101827.69;5095414;28;20191;-68
2022/03/18 08:59:06;;;;;;;5.60;5.13;;;;;;;13.05;26.68;101823.72;5095312;28;20338;-69
2022/03/18 09:01:33;;;;;;;10.33;5.87;;;;;;;13.19;26.30;101823.16;5095477;28;20199;-68
2022/03/18 09:04:00;;;;;;;7.00;5.57;;;;;;;13.52;26.27;101816.19;5095227;28;20264;-69
2022/03/18 09:06:26;;;;;;;7.13;6.60;;;;;;;13.40;26.18;101822.81;5094833;28;20501;-79
2022/03/18 09:08:56;;;;;;;6.70;6.10;;;;;;;14.15;28.49;101812.97;5095280;28;20195;-70
2022/03/18 09:11:23;;;;;;;7.60;6.53;;;;;;;14.59;27.90;101805.56;5095356;28;20199;-71
2022/03/18 09:13:50;;;;;;;9.13;6.67;;;;;;;14.66;25.93;101807.41;5095351;28;20219;-71
2022/03/18 09:16:16;;;;;;;7.70;5.97;;;;;;;13.97;24.93;101808.72;5094549;28;20259;-70
2022/03/18 09:18:43;;;;;;;6.43;5.80;;;;;;;13.95;27.90;101802.69;5093771;28;20206;-70
2022/03/18 09:21:10;;;;;;;6.83;5.83;;;;;;;13.80;26.93;101802.47;5095245;28;20191;-74
2022/03/18 09:23:37;;;;;;;5.80;5.43;;;;;;;13.98;30.09;101792.53;5094930;28;20196;-74
2022/03/18 09:26:05;;;;;;;6.33;5.23;;;;;;;14.35;25.23;101794.81;5095015;28;20252;-72
2022/03/18 09:28:32;;;;;;;21.10;7.10;;;;;;;14.61;26.20;101801.72;5094846;28;20191;-69
2022/03/18 09:30:59;;;;;;;6.40;5.80;;;;;;;14.03;24.81;101806.25;5091486;28;20196;-70
2022/03/18 09:33:26;;;;;;;5.97;5.60;;;;;;;13.45;25.41;101802.66;5102155;28;20265;-70
2022/03/18 09:35:53;;;;;;;6.47;5.87;;;;;;;12.75;25.86;101800.13;5114463;28;20199;-69
2022/03/18 09:38:21;;;;;;;6.73;5.63;;;;;;;12.29;26.38;101805.66;5115053;28;20256;-70
2022/03/18 09:40:48;;;;;;;11.20;10.13;;;;;;;11.70;27.21;101799.13;5103609;28;20543;-68
2022/03/18 09:43:17;;;;;;;7.37;6.73;;;;;;;11.20;27.85;101801.25;5094316;28;20631;-70
2022/03/18 09:45:44;;;;;;;6.93;5.70;;;;;;;11.34;28.33;101789.28;5093634;28;20201;-68
2022/03/18 09:48:11;;;;;;;6.77;6.07;;;;;;;11.72;28.03;101775.88;5094318;28;20208;-70
2022/03/18 09:50:40;;;;;;;8.27;7.47;;;;;;;11.98;27.99;101772.34;5094224;28;20189;-68
2022/03/18 09:53:08;;;;;;;6.47;5.63;;;;;;;11.76;27.08;101724.81;5094364;28;20250;-71
2022/03/18 09:55:37;;;;;;;6.27;5.63;;;;;;;12.55;26.66;101777.25;5094287;28;20281;-70
2022/03/18 09:58:04;;;;;;;6.30;5.80;;;;;;;12.27;26.74;101762.34;5094437;28;20194;-71
2022/03/18 10:00:32;;;;;;;6.07;5.47;;;;;;;12.42;26.63;101771.44;5094055;28;20202;-69
2022/03/18 10:03:09;;;;;;;7.10;5.87;;;;;;;12.82;25.80;101773.66;5093636;28;20217;-69
2022/03/18 10:05:45;;;;;;;6.03;5.50;;;;;;;12.93;25.71;101774.25;5094266;28;20237;-69
2022/03/18 10:08:12;;;;;;;6.30;5.70;;;;;;;13.13;26.54;101773.09;5095171;28;20187;-69
2022/03/18 10:10:46;;;;;;;7.00;5.37;;;;;;;13.20;27.23;101771.47;5093750;28;20567;-69
2022/03/18 10:13:15;;;;;;;6.33;5.40;;;;;;;13.18;27.69;101768.09;5094237;28;20278;-69
2022/03/18 10:15:43;;;;;;;12.57;6.27;;;;;;;12.68;28.16;101764.38;5093436;28;20686;-68
2022/03/18 10:18:12;;;;;;;5.93;5.33;;;;;;;12.48;27.88;101754.00;5077034;28;20252;-68
2022/03/18 10:20:40;;;;;;;7.33;6.23;;;;;;;12.39;28.42;101781.59;5073714;28;20202;-68
2022/03/18 10:23:21;;;;;;;15.87;6.20;;;;;;;12.47;30.95;101771.84;5073434;28;20200;-68
2022/03/18 10:25:51;;;;;;;21.37;8.40;;;;;;;12.39;27.65;101770.94;5086410;28;20199;-68
2022/03/18 10:28:32;;;;;;;5.47;5.07;;;;;;;12.31;27.49;101766.38;5094045;28;20274;-68
2022/03/18 10:31:12;;;;;;;6.20;5.70;;;;;;;12.11;26.47;101772.81;5094300;28;20209;-69
2022/03/18 10:39:26;;;;;;;6.17;5.77;;;;;;;12.25;26.82;101766.13;5093380;28;20256;-69
2022/03/18 10:41:53;;;;;;;5.07;4.67;;;;;;;12.44;26.11;101753.50;5073750;28;20203;-69
2022/03/18 10:44:20;;;;;;;5.60;5.20;;;;;;;12.36;25.87;101755.22;5084638;28;20200;-69
2022/03/18 10:46:49;;;;;;;8.20;6.00;;;;;;;12.40;27.38;101759.28;5092672;28;20720;-68
2022/03/18 10:49:16;;;;;;;10.03;8.60;;;;;;;11.76;30.12;101743.44;5092910;28;20662;-71
2022/03/18 10:51:44;;;;;;;13.03;8.63;;;;;;;11.84;29.17;101748.06;5091906;28;20208;-70
2022/03/18 10:54:11;;;;;;;5.30;4.80;;;;;;;11.76;30.48;101746.09;5092858;28;20279;-71
2022/03/18 10:56:57;;;;;;;5.93;5.43;;;;;;;11.57;28.92;101706.28;5093181;28;20218;-71
2022/03/18 10:59:27;;;;;;;8.73;5.73;;;;;;;11.61;30.94;101736.97;5088420;28;20185;-72
2022/03/18 11:01:57;;;;;;;5.93;5.43;;;;;;;11.24;29.59;101738.78;5078330;28;20277;-73
2022/03/18 11:04:26;;;;;;;7.07;5.30;;;;;;;11.07;30.81;101731.56;5091739;28;20258;-70
2022/03/18 11:12:29;;;;;;;6.13;5.53;;;;;;;10.85;30.49;101737.19;5072634;28;20238;-70
2022/03/18 11:14:57;;;;;;;7.00;6.23;;;;;;;11.10;29.98;101738.41;5072446;28;20217;-71
2022/03/18 11:17:26;;;;;;;6.33;5.30;;;;;;;10.88;28.53;101736.91;5072644;28;20224;-75
2022/03/18 11:19:53;;;;;;;12.07;5.97;;;;;;;10.96;29.13;101726.41;5072427;28;20645;-69
2022/03/18 11:22:22;;;;;;;5.50;5.10;;;;;;;11.04;28.12;101735.31;5072327;28;20228;-70
2022/03/18 11:24:50;;;;;;;5.37;5.07;;;;;;;11.10;28.86;101728.59;5072428;28;20202;-69
2022/03/18 11:27:17;;;;;;;9.83;6.90;;;;;;;10.60;29.17;101732.47;5072214;28;20253;-70
2022/03/18 11:29:44;;;;;;;6.10;5.50;;;;;;;10.78;28.46;101730.75;5072309;28;20198;-70
2022/03/18 11:32:21;;;;;;;6.87;6.13;;;;;;;11.16;29.17;101724.50;5072072;28;20255;-69
2022/03/18 11:34:51;;;;;;;5.37;4.87;;;;;;;10.93;28.65;101730.19;5112399;28;20227;-70
2022/03/18 11:37:18;;;;;;;5.77;5.13;;;;;;;11.05;30.13;101717.53;5084461;28;20207;-72
2022/03/18 11:39:47;;;;;;;5.17;4.70;;;;;;;10.92;29.16;101717.84;5085661;28;20745;-70
2022/03/18 11:42:19;;;;;;;6.00;5.30;;;;;;;11.11;29.02;101708.97;5086865;28;20207;-70
2022/03/18 11:44:52;;;;;;;5.50;4.97;;;;;;;11.35;28.54;101714.63;5092245;28;20191;-70
2022/03/18 11:47:44;;;;;;;6.60;5.60;;;;;;;10.80;29.13;101702.22;5092640;28;20564;-70
2022/03/18 11:50:47;;;;;;;6.20;5.10;;;;;;;10.78;28.93;101709.50;5092965;28;20189;-69
2022/03/18 11:53:31;;;;;;;5.30;4.07;;;;;;;10.50;27.13;101715.72;5092102;28;20191;-69
2022/03/18 11:56:08;;;;;;;4.10;3.80;;;;;;;10.15;27.31;101686.22;5087142;28;20757;-68